createdAt,value
2017-10-03T01:36:43.066Z,1010.59
2017-10-03T01:36:43.632Z,1010.56
2017-10-03T01:36:44.232Z,1010.58
2017-10-03T01:36:44.834Z,1010.57
2017-10-03T01:36:45.432Z,1010.57
2017-10-03T01:36:46.029Z,1010.55
2017-10-03T01:36:46.630Z,1010.57
2017-10-03T01:36:47.235Z,1010.59
2017-10-03T01:37:40.710Z,1010.59
2017-10-03T01:37:41.284Z,1010.59
2017-10-03T01:37:41.884Z,1010.63
2017-10-03T01:37:42.485Z,1010.61
2017-10-03T01:37:43.083Z,1010.60
2017-10-03T01:37:43.687Z,1010.60
2017-10-03T01:37:44.284Z,1010.60
2017-10-03T01:37:44.884Z,1010.58
2017-10-03T01:38:38.363Z,1010.56
2017-10-03T01:38:38.938Z,1010.52
2017-10-03T01:38:39.536Z,1010.58
2017-10-03T01:38:40.137Z,1010.57
2017-10-03T01:38:40.736Z,1010.61
2017-10-03T01:38:41.336Z,1010.58
2017-10-03T01:38:41.935Z,1010.57
2017-10-03T01:38:42.536Z,1010.62
2017-10-03T01:39:36.014Z,1010.61
2017-10-03T01:39:36.588Z,1010.60
2017-10-03T01:39:37.193Z,1010.55
2017-10-03T01:39:37.788Z,1010.65
2017-10-03T01:39:38.391Z,1010.59
2017-10-03T01:39:38.987Z,1010.64
2017-10-03T01:39:39.588Z,1010.63
2017-10-03T01:39:40.190Z,1010.59
2017-10-03T01:40:33.669Z,1010.67
2017-10-03T01:40:34.245Z,1010.63
2017-10-03T01:40:34.842Z,1010.63
2017-10-03T01:40:35.441Z,1010.64
2017-10-03T01:40:36.041Z,1010.66
2017-10-03T01:40:36.640Z,1010.62
2017-10-03T01:40:37.241Z,1010.62
2017-10-03T01:40:37.842Z,1010.62
2017-10-03T01:41:31.320Z,1010.59
2017-10-03T01:41:31.893Z,1010.61
2017-10-03T01:41:32.493Z,1010.62
2017-10-03T01:41:33.093Z,1010.63
2017-10-03T01:41:33.693Z,1010.62
2017-10-03T01:41:34.292Z,1010.60
2017-10-03T01:41:34.893Z,1010.62
2017-10-03T01:41:35.498Z,1010.60
2017-10-03T01:42:28.971Z,1010.54
2017-10-03T01:42:29.547Z,1010.58
2017-10-03T01:42:30.146Z,1010.56
2017-10-03T01:42:30.745Z,1010.54
2017-10-03T01:42:31.345Z,1010.57
2017-10-03T01:42:31.947Z,1010.56
2017-10-03T01:42:32.544Z,1010.56
2017-10-03T01:42:33.145Z,1010.55
2017-10-03T01:43:27.649Z,1010.54
2017-10-03T01:43:28.221Z,1010.54
2017-10-03T01:43:28.821Z,1010.53
2017-10-03T01:43:29.422Z,1010.51
2017-10-03T01:43:30.018Z,1010.54
2017-10-03T01:43:30.617Z,1010.53
2017-10-03T01:43:31.219Z,1010.55
2017-10-03T01:43:31.819Z,1010.55
2017-10-03T01:44:25.299Z,1010.51
2017-10-03T01:44:25.874Z,1010.52
2017-10-03T01:44:26.474Z,1010.54
2017-10-03T01:44:27.072Z,1010.54
2017-10-03T01:44:27.672Z,1010.56
2017-10-03T01:44:28.273Z,1010.53
2017-10-03T01:44:28.873Z,1010.53
2017-10-03T01:44:29.473Z,1010.54
2017-10-03T01:45:23.976Z,1010.49
2017-10-03T01:45:24.550Z,1010.52
2017-10-03T01:45:25.148Z,1010.53
2017-10-03T01:45:25.749Z,1010.53
2017-10-03T01:45:26.349Z,1010.52
2017-10-03T01:45:26.960Z,1010.53
2017-10-03T01:45:27.555Z,1010.52
2017-10-03T01:45:28.146Z,1010.52
2017-10-03T01:46:21.627Z,1010.53
2017-10-03T01:46:22.202Z,1010.53
2017-10-03T01:46:22.803Z,1010.54
2017-10-03T01:46:23.402Z,1010.55
2017-10-03T01:46:24.002Z,1010.55
2017-10-03T01:46:24.605Z,1010.54
2017-10-03T01:46:25.203Z,1010.54
2017-10-03T01:46:25.800Z,1010.54
2017-10-03T01:47:19.279Z,1010.49
2017-10-03T01:47:19.853Z,1010.49
2017-10-03T01:47:20.454Z,1010.49
2017-10-03T01:47:21.051Z,1010.52
2017-10-03T01:47:21.656Z,1010.53
2017-10-03T01:47:22.252Z,1010.50
2017-10-03T01:47:22.852Z,1010.52
2017-10-03T01:47:23.451Z,1010.53
2017-10-03T01:48:17.955Z,1010.52
2017-10-03T01:48:18.529Z,1010.49
2017-10-03T01:48:19.127Z,1010.50
2017-10-03T01:48:19.732Z,1010.53
2017-10-03T01:48:20.331Z,1010.49
2017-10-03T01:48:20.928Z,1010.48
2017-10-03T01:48:21.527Z,1010.50
2017-10-03T01:48:22.127Z,1010.51
2017-10-03T01:49:16.630Z,1010.53
2017-10-03T01:49:17.203Z,1010.51
2017-10-03T01:49:17.803Z,1010.55
2017-10-03T01:49:18.403Z,1010.51
2017-10-03T01:49:19.005Z,1010.52
2017-10-03T01:49:19.604Z,1010.53
2017-10-03T01:49:20.204Z,1010.53
2017-10-03T01:49:20.803Z,1010.54
2017-10-03T01:50:14.281Z,1010.49
2017-10-03T01:50:14.856Z,1010.51
2017-10-03T01:50:15.458Z,1010.52
2017-10-03T01:50:16.056Z,1010.52
2017-10-03T01:50:16.662Z,1010.54
2017-10-03T01:50:17.255Z,1010.51
2017-10-03T01:50:17.854Z,1010.50
2017-10-03T01:50:18.454Z,1010.51
2017-10-03T01:51:11.936Z,1010.55
2017-10-03T01:51:12.515Z,1010.57
2017-10-03T01:51:13.109Z,1010.52
2017-10-03T01:51:13.709Z,1010.54
2017-10-03T01:51:14.310Z,1010.53
2017-10-03T01:51:14.934Z,1010.53
2017-10-03T01:51:15.515Z,1010.52
2017-10-03T01:51:16.156Z,1010.52
2017-10-03T01:52:09.586Z,1010.51
2017-10-03T01:52:10.160Z,1010.50
2017-10-03T01:52:10.759Z,1010.51
2017-10-03T01:52:11.364Z,1010.51
2017-10-03T01:52:11.959Z,1010.51
2017-10-03T01:52:12.558Z,1010.50
2017-10-03T01:52:13.159Z,1010.51
2017-10-03T01:52:13.758Z,1010.50
2017-10-03T01:53:07.237Z,1010.53
2017-10-03T01:53:07.814Z,1010.52
2017-10-03T01:53:08.420Z,1010.52
2017-10-03T01:53:09.011Z,1010.54
2017-10-03T01:53:09.610Z,1010.54
2017-10-03T01:53:10.211Z,1010.54
2017-10-03T01:53:10.812Z,1010.50
2017-10-03T01:53:11.411Z,1010.51
2017-10-03T01:54:04.888Z,1010.50
2017-10-03T01:54:05.464Z,1010.55
2017-10-03T01:54:06.063Z,1010.54
2017-10-03T01:54:06.662Z,1010.55
2017-10-03T01:54:07.267Z,1010.54
2017-10-03T01:54:07.863Z,1010.52
2017-10-03T01:54:08.462Z,1010.52
2017-10-03T01:54:09.062Z,1010.57
2017-10-03T01:55:02.542Z,1010.56
2017-10-03T01:55:03.115Z,1010.53
2017-10-03T01:55:03.717Z,1010.52
2017-10-03T01:55:04.316Z,1010.55
2017-10-03T01:55:04.916Z,1010.57
2017-10-03T01:55:05.515Z,1010.55
2017-10-03T01:55:06.114Z,1010.53
2017-10-03T01:55:06.716Z,1010.52
2017-10-03T01:56:01.219Z,1010.53
2017-10-03T01:56:01.790Z,1010.55
2017-10-03T01:56:02.390Z,1010.50
2017-10-03T01:56:02.989Z,1010.49
2017-10-03T01:56:03.591Z,1010.53
2017-10-03T01:56:04.188Z,1010.53
2017-10-03T01:56:04.788Z,1010.50
2017-10-03T01:56:05.388Z,1010.52
2017-10-03T01:56:58.868Z,1010.57
2017-10-03T01:56:59.444Z,1010.50
2017-10-03T01:57:00.042Z,1010.56
2017-10-03T01:57:00.643Z,1010.54
2017-10-03T01:57:01.243Z,1010.55
2017-10-03T01:57:01.843Z,1010.53
2017-10-03T01:57:02.445Z,1010.56
2017-10-03T01:57:03.040Z,1010.56
2017-10-03T01:57:57.545Z,1010.55
2017-10-03T01:57:58.117Z,1010.54
2017-10-03T01:57:58.718Z,1010.53
2017-10-03T01:57:59.317Z,1010.54
2017-10-03T01:57:59.917Z,1010.54
2017-10-03T01:58:00.517Z,1010.56
2017-10-03T01:58:01.118Z,1010.55
2017-10-03T01:58:01.717Z,1010.56
2017-10-03T01:58:55.196Z,1010.61
2017-10-03T01:58:55.771Z,1010.60
2017-10-03T01:58:56.374Z,1010.58
2017-10-03T01:58:56.969Z,1010.58
2017-10-03T01:58:57.570Z,1010.55
2017-10-03T01:58:58.169Z,1010.56
2017-10-03T01:58:58.770Z,1010.58
2017-10-03T01:58:59.368Z,1010.57
2017-10-03T01:59:53.873Z,1010.55
2017-10-03T01:59:54.451Z,1010.54
2017-10-03T01:59:55.046Z,1010.56
2017-10-03T01:59:55.649Z,1010.52
2017-10-03T01:59:56.247Z,1010.56
2017-10-03T01:59:56.843Z,1010.55
2017-10-03T01:59:57.444Z,1010.57
2017-10-03T01:59:58.044Z,1010.54
2017-10-03T02:00:51.524Z,1010.56
2017-10-03T02:00:52.096Z,1010.56
2017-10-03T02:00:52.697Z,1010.54
2017-10-03T02:00:53.297Z,1010.56
2017-10-03T02:00:53.907Z,1010.57
2017-10-03T02:00:54.495Z,1010.57
2017-10-03T02:00:55.095Z,1010.56
2017-10-03T02:00:55.695Z,1010.55
2017-10-03T02:01:49.174Z,1010.55
2017-10-03T02:01:49.748Z,1010.56
2017-10-03T02:01:50.353Z,1010.54
2017-10-03T02:01:50.948Z,1010.57
2017-10-03T02:01:51.548Z,1010.54
2017-10-03T02:01:52.149Z,1010.56
2017-10-03T02:01:52.748Z,1010.53
2017-10-03T02:01:53.348Z,1010.54
2017-10-03T02:02:47.852Z,1010.51
2017-10-03T02:02:48.425Z,1010.52
2017-10-03T02:02:49.022Z,1010.53
2017-10-03T02:02:49.623Z,1010.51
2017-10-03T02:02:50.225Z,1010.51
2017-10-03T02:02:50.822Z,1010.53
2017-10-03T02:02:51.424Z,1010.55
2017-10-03T02:02:52.023Z,1010.56
2017-10-03T02:03:46.527Z,1010.57
2017-10-03T02:03:47.100Z,1010.54
2017-10-03T02:03:47.700Z,1010.58
2017-10-03T02:03:48.298Z,1010.53
2017-10-03T02:03:48.899Z,1010.55
2017-10-03T02:03:49.499Z,1010.54
2017-10-03T02:03:50.099Z,1010.57
2017-10-03T02:03:50.698Z,1010.60
2017-10-03T02:04:44.177Z,1010.51
2017-10-03T02:04:44.752Z,1010.50
2017-10-03T02:04:45.355Z,1010.53
2017-10-03T02:04:45.955Z,1010.51
2017-10-03T02:04:46.552Z,1010.52
2017-10-03T02:04:47.152Z,1010.52
2017-10-03T02:04:47.756Z,1010.52
2017-10-03T02:04:48.352Z,1010.53
2017-10-03T02:05:42.855Z,1010.54
2017-10-03T02:05:43.428Z,1010.52
2017-10-03T02:05:44.028Z,1010.49
2017-10-03T02:05:44.628Z,1010.52
2017-10-03T02:05:45.226Z,1010.55
2017-10-03T02:05:45.827Z,1010.52
2017-10-03T02:05:46.426Z,1010.52
2017-10-03T02:05:47.026Z,1010.57
2017-10-03T02:06:41.530Z,1010.49
2017-10-03T02:06:42.104Z,1010.48
2017-10-03T02:06:42.705Z,1010.54
2017-10-03T02:06:43.303Z,1010.54
2017-10-03T02:06:43.904Z,1010.51
2017-10-03T02:06:44.509Z,1010.54
2017-10-03T02:06:45.102Z,1010.53
2017-10-03T02:06:45.703Z,1010.53
2017-10-03T02:07:39.183Z,1010.54
2017-10-03T02:07:39.757Z,1010.55
2017-10-03T02:07:40.356Z,1010.56
2017-10-03T02:07:40.956Z,1010.52
2017-10-03T02:07:41.555Z,1010.55
2017-10-03T02:07:42.154Z,1010.57
2017-10-03T02:07:42.758Z,1010.56
2017-10-03T02:07:43.354Z,1010.53
2017-10-03T02:08:36.833Z,1010.58
2017-10-03T02:08:37.407Z,1010.60
2017-10-03T02:08:38.008Z,1010.59
2017-10-03T02:08:38.607Z,1010.58
2017-10-03T02:08:39.206Z,1010.57
2017-10-03T02:08:39.806Z,1010.58
2017-10-03T02:08:40.406Z,1010.60
2017-10-03T02:08:41.008Z,1010.59
2017-10-03T02:09:34.690Z,1010.57
2017-10-03T02:09:35.263Z,1010.57
2017-10-03T02:09:35.864Z,1010.56
2017-10-03T02:09:36.462Z,1010.57
2017-10-03T02:09:37.062Z,1010.59
2017-10-03T02:09:37.676Z,1010.55
2017-10-03T02:09:38.262Z,1010.58
2017-10-03T02:09:38.861Z,1010.59
2017-10-03T02:10:33.366Z,1010.58
2017-10-03T02:10:33.939Z,1010.58
2017-10-03T02:10:34.539Z,1010.58
2017-10-03T02:10:35.137Z,1010.57
2017-10-03T02:10:35.738Z,1010.59
2017-10-03T02:10:36.337Z,1010.57
2017-10-03T02:10:36.936Z,1010.57
2017-10-03T02:10:37.538Z,1010.55
2017-10-03T02:11:32.041Z,1010.60
2017-10-03T02:11:32.615Z,1010.57
2017-10-03T02:11:33.214Z,1010.59
2017-10-03T02:11:33.815Z,1010.60
2017-10-03T02:11:34.417Z,1010.58
2017-10-03T02:11:35.013Z,1010.58
2017-10-03T02:11:35.614Z,1010.58
2017-10-03T02:11:36.213Z,1010.62
2017-10-03T02:12:29.695Z,1010.60
2017-10-03T02:12:30.266Z,1010.61
2017-10-03T02:12:30.866Z,1010.58
2017-10-03T02:12:31.466Z,1010.57
2017-10-03T02:12:32.065Z,1010.57
2017-10-03T02:12:32.666Z,1010.58
2017-10-03T02:12:33.265Z,1010.59
2017-10-03T02:12:33.868Z,1010.59
2017-10-03T02:13:28.369Z,1010.59
2017-10-03T02:13:28.941Z,1010.61
2017-10-03T02:13:29.543Z,1010.60
2017-10-03T02:13:30.141Z,1010.60
2017-10-03T02:13:30.741Z,1010.62
2017-10-03T02:13:31.340Z,1010.63
2017-10-03T02:13:31.941Z,1010.63
2017-10-03T02:13:32.544Z,1010.62
2017-10-03T02:14:27.044Z,1010.63
2017-10-03T02:14:27.616Z,1010.64
2017-10-03T02:14:28.215Z,1010.60
2017-10-03T02:14:28.815Z,1010.65
2017-10-03T02:14:29.416Z,1010.62
2017-10-03T02:14:30.016Z,1010.62
2017-10-03T02:14:30.617Z,1010.65
2017-10-03T02:14:31.217Z,1010.60
2017-10-03T02:15:24.695Z,1010.55
2017-10-03T02:15:25.270Z,1010.54
2017-10-03T02:15:25.869Z,1010.59
2017-10-03T02:15:26.475Z,1010.58
2017-10-03T02:15:27.069Z,1010.57
2017-10-03T02:15:27.672Z,1010.59
2017-10-03T02:15:28.269Z,1010.59
2017-10-03T02:15:28.869Z,1010.55
2017-10-03T02:16:22.347Z,1010.62
2017-10-03T02:16:22.921Z,1010.62
2017-10-03T02:16:23.522Z,1010.57
2017-10-03T02:16:24.122Z,1010.62
2017-10-03T02:16:24.720Z,1010.60
2017-10-03T02:16:25.323Z,1010.56
2017-10-03T02:16:25.921Z,1010.61
2017-10-03T02:16:26.521Z,1010.59
2017-10-03T02:17:19.998Z,1010.57
2017-10-03T02:17:20.579Z,1010.57
2017-10-03T02:17:21.173Z,1010.57
2017-10-03T02:17:21.772Z,1010.56
2017-10-03T02:17:22.372Z,1010.57
2017-10-03T02:17:22.974Z,1010.57
2017-10-03T02:17:23.579Z,1010.56
2017-10-03T02:17:24.174Z,1010.56
2017-10-03T02:18:17.650Z,1010.55
2017-10-03T02:18:18.224Z,1010.56
2017-10-03T02:18:18.824Z,1010.56
2017-10-03T02:18:19.424Z,1010.57
2017-10-03T02:18:20.029Z,1010.53
2017-10-03T02:18:20.624Z,1010.59
2017-10-03T02:18:21.224Z,1010.55
2017-10-03T02:18:21.823Z,1010.58
2017-10-03T02:19:15.301Z,1010.58
2017-10-03T02:19:15.875Z,1010.56
2017-10-03T02:19:16.478Z,1010.54
2017-10-03T02:19:17.076Z,1010.56
2017-10-03T02:19:17.676Z,1010.56
2017-10-03T02:19:18.277Z,1010.51
2017-10-03T02:19:18.875Z,1010.54
2017-10-03T02:19:19.477Z,1010.56
2017-10-03T02:20:12.952Z,1010.53
2017-10-03T02:20:13.529Z,1010.55
2017-10-03T02:20:14.128Z,1010.56
2017-10-03T02:20:14.728Z,1010.56
2017-10-03T02:20:15.328Z,1010.57
2017-10-03T02:20:15.929Z,1010.55
2017-10-03T02:20:16.528Z,1010.54
2017-10-03T02:20:17.128Z,1010.55
2017-10-03T02:21:11.631Z,1010.55
2017-10-03T02:21:12.203Z,1010.55
2017-10-03T02:21:12.802Z,1010.56
2017-10-03T02:21:13.401Z,1010.56
2017-10-03T02:21:14.004Z,1010.55
2017-10-03T02:21:14.603Z,1010.54
2017-10-03T02:21:15.202Z,1010.53
2017-10-03T02:21:15.802Z,1010.55
2017-10-03T02:22:09.281Z,1010.53
2017-10-03T02:22:09.854Z,1010.52
2017-10-03T02:22:10.454Z,1010.52
2017-10-03T02:22:11.054Z,1010.53
2017-10-03T02:22:11.656Z,1010.55
2017-10-03T02:22:12.256Z,1010.54
2017-10-03T02:22:12.854Z,1010.51
2017-10-03T02:22:13.457Z,1010.56
2017-10-03T02:23:06.932Z,1010.53
2017-10-03T02:23:07.508Z,1010.57
2017-10-03T02:23:08.107Z,1010.58
2017-10-03T02:23:08.708Z,1010.56
2017-10-03T02:23:09.311Z,1010.54
2017-10-03T02:23:09.906Z,1010.53
2017-10-03T02:23:10.506Z,1010.55
2017-10-03T02:23:11.107Z,1010.53
2017-10-03T02:24:05.614Z,1010.54
2017-10-03T02:24:06.182Z,1010.55
2017-10-03T02:24:06.780Z,1010.55
2017-10-03T02:24:07.381Z,1010.56
2017-10-03T02:24:07.982Z,1010.57
2017-10-03T02:24:08.581Z,1010.53
2017-10-03T02:24:09.180Z,1010.55
2017-10-03T02:24:09.781Z,1010.54
2017-10-03T02:25:04.284Z,1010.55
2017-10-03T02:25:04.857Z,1010.55
2017-10-03T02:25:05.458Z,1010.55
2017-10-03T02:25:06.057Z,1010.58
2017-10-03T02:25:06.656Z,1010.57
2017-10-03T02:25:07.257Z,1010.56
2017-10-03T02:25:07.858Z,1010.54
2017-10-03T02:25:08.458Z,1010.57
2017-10-03T02:26:02.961Z,1010.61
2017-10-03T02:26:03.532Z,1010.55
2017-10-03T02:26:04.132Z,1010.56
2017-10-03T02:26:04.731Z,1010.54
2017-10-03T02:26:05.336Z,1010.53
2017-10-03T02:26:05.935Z,1010.59
2017-10-03T02:26:06.532Z,1010.54
2017-10-03T02:26:07.133Z,1010.54
2017-10-03T02:27:01.635Z,1010.57
2017-10-03T02:27:02.209Z,1010.55
2017-10-03T02:27:02.808Z,1010.53
2017-10-03T02:27:03.408Z,1010.56
2017-10-03T02:27:04.008Z,1010.57
2017-10-03T02:27:04.608Z,1010.58
2017-10-03T02:27:05.211Z,1010.54
2017-10-03T02:27:05.809Z,1010.55
2017-10-03T02:28:00.312Z,1010.57
2017-10-03T02:28:00.888Z,1010.53
2017-10-03T02:28:01.484Z,1010.54
2017-10-03T02:28:02.083Z,1010.57
2017-10-03T02:28:02.684Z,1010.57
2017-10-03T02:28:03.283Z,1010.59
2017-10-03T02:28:03.884Z,1010.56
2017-10-03T02:28:04.483Z,1010.57
2017-10-03T02:28:58.987Z,1010.55
2017-10-03T02:28:59.560Z,1010.55
2017-10-03T02:29:00.160Z,1010.54
2017-10-03T02:29:00.759Z,1010.55
2017-10-03T02:29:01.361Z,1010.53
2017-10-03T02:29:01.959Z,1010.55
2017-10-03T02:29:02.560Z,1010.54
2017-10-03T02:29:03.160Z,1010.55
2017-10-03T02:29:57.664Z,1010.59
2017-10-03T02:29:58.236Z,1010.57
2017-10-03T02:29:58.836Z,1010.54
2017-10-03T02:29:59.436Z,1010.58
2017-10-03T02:30:00.036Z,1010.61
2017-10-03T02:30:00.635Z,1010.56
2017-10-03T02:30:01.242Z,1010.59
2017-10-03T02:30:01.836Z,1010.59
2017-10-03T02:30:55.313Z,1010.61
2017-10-03T02:30:55.891Z,1010.56
2017-10-03T02:30:56.487Z,1010.63
2017-10-03T02:30:57.091Z,1010.59
2017-10-03T02:30:57.689Z,1010.59
2017-10-03T02:30:58.287Z,1010.60
2017-10-03T02:30:58.889Z,1010.57
2017-10-03T02:30:59.488Z,1010.59
2017-10-03T02:31:53.991Z,1010.62
2017-10-03T02:31:54.568Z,1010.62
2017-10-03T02:31:55.165Z,1010.59
2017-10-03T02:31:55.762Z,1010.58
2017-10-03T02:31:56.363Z,1010.62
2017-10-03T02:31:56.963Z,1010.56
2017-10-03T02:31:57.563Z,1010.60
2017-10-03T02:31:58.161Z,1010.59
2017-10-03T02:32:52.666Z,1010.63
2017-10-03T02:32:53.239Z,1010.64
2017-10-03T02:32:53.837Z,1010.63
2017-10-03T02:32:54.438Z,1010.62
2017-10-03T02:32:55.038Z,1010.63
2017-10-03T02:32:55.639Z,1010.65
2017-10-03T02:32:56.239Z,1010.65
2017-10-03T02:32:56.838Z,1010.65
2017-10-03T02:33:51.343Z,1010.60
2017-10-03T02:33:51.918Z,1010.62
2017-10-03T02:33:52.514Z,1010.63
2017-10-03T02:33:53.114Z,1010.64
2017-10-03T02:33:53.714Z,1010.65
2017-10-03T02:33:54.313Z,1010.64
2017-10-03T02:33:54.914Z,1010.63
2017-10-03T02:33:55.514Z,1010.62
2017-10-03T02:50:48.176Z,1010.71
2017-10-03T02:50:48.753Z,1010.72
2017-10-03T02:50:49.350Z,1010.73
2017-10-03T02:50:49.949Z,1010.72
2017-10-03T02:50:50.551Z,1010.68
2017-10-03T02:50:51.150Z,1010.71
2017-10-03T02:50:51.750Z,1010.71
2017-10-03T02:50:52.351Z,1010.71
2017-10-03T02:51:46.856Z,1010.73
2017-10-03T02:51:47.424Z,1010.72
2017-10-03T02:51:48.026Z,1010.72
2017-10-03T02:51:48.624Z,1010.72
2017-10-03T02:51:49.224Z,1010.69
2017-10-03T02:51:49.825Z,1010.73
2017-10-03T02:51:50.424Z,1010.71
2017-10-03T02:51:51.023Z,1010.74
2017-10-03T02:52:45.528Z,1010.70
2017-10-03T02:52:46.103Z,1010.72
2017-10-03T02:52:46.704Z,1010.70
2017-10-03T02:52:47.301Z,1010.70
2017-10-03T02:52:47.901Z,1010.71
2017-10-03T02:52:48.501Z,1010.73
2017-10-03T02:52:49.100Z,1010.72
2017-10-03T02:52:49.701Z,1010.71
2017-10-03T02:53:44.206Z,1010.76
2017-10-03T02:53:44.778Z,1010.77
2017-10-03T02:53:45.378Z,1010.72
2017-10-03T02:53:45.976Z,1010.74
2017-10-03T02:53:46.580Z,1010.71
2017-10-03T02:53:47.177Z,1010.75
2017-10-03T02:53:47.776Z,1010.75
2017-10-03T02:53:48.375Z,1010.76
2017-10-03T02:54:41.856Z,1010.73
2017-10-03T02:54:42.431Z,1010.71
2017-10-03T02:54:43.032Z,1010.75
2017-10-03T02:54:43.629Z,1010.73
2017-10-03T02:54:44.230Z,1010.70
2017-10-03T02:54:44.831Z,1010.72
2017-10-03T02:54:45.432Z,1010.73
2017-10-03T02:54:46.029Z,1010.74
2017-10-03T02:55:39.508Z,1010.72
2017-10-03T02:55:40.083Z,1010.74
2017-10-03T02:55:40.682Z,1010.78
2017-10-03T02:55:41.283Z,1010.74
2017-10-03T02:55:41.883Z,1010.75
2017-10-03T02:55:42.482Z,1010.77
2017-10-03T02:55:43.082Z,1010.77
2017-10-03T02:55:43.682Z,1010.74
2017-10-03T02:56:37.162Z,1010.76
2017-10-03T02:56:37.733Z,1010.77
2017-10-03T02:56:38.334Z,1010.73
2017-10-03T02:56:38.933Z,1010.74
2017-10-03T02:56:39.540Z,1010.78
2017-10-03T02:56:40.133Z,1010.77
2017-10-03T02:56:40.735Z,1010.76
2017-10-03T02:56:41.334Z,1010.75
2017-10-03T02:57:34.812Z,1010.75
2017-10-03T02:57:35.387Z,1010.76
2017-10-03T02:57:35.987Z,1010.77
2017-10-03T02:57:36.586Z,1010.77
2017-10-03T02:57:37.185Z,1010.80
2017-10-03T02:57:37.786Z,1010.77
2017-10-03T02:57:38.386Z,1010.79
2017-10-03T02:57:38.985Z,1010.78
2017-10-03T02:58:32.463Z,1010.76
2017-10-03T02:58:33.040Z,1010.76
2017-10-03T02:58:33.638Z,1010.77
2017-10-03T02:58:34.239Z,1010.76
2017-10-03T02:58:34.839Z,1010.78
2017-10-03T02:58:35.438Z,1010.76
2017-10-03T02:58:36.039Z,1010.77
2017-10-03T02:58:36.638Z,1010.76
2017-10-03T02:59:42.812Z,1010.78
2017-10-03T02:59:43.388Z,1010.74
2017-10-03T02:59:43.988Z,1010.76
2017-10-03T02:59:44.591Z,1010.76
2017-10-03T02:59:45.187Z,1010.78
2017-10-03T02:59:45.786Z,1010.77
2017-10-03T02:59:46.387Z,1010.78
2017-10-03T02:59:46.987Z,1010.79
2017-10-03T03:00:41.490Z,1010.74
2017-10-03T03:00:42.063Z,1010.77
2017-10-03T03:00:42.664Z,1010.76
2017-10-03T03:00:43.262Z,1010.74
2017-10-03T03:00:43.861Z,1010.78
2017-10-03T03:00:44.461Z,1010.80
2017-10-03T03:00:45.062Z,1010.76
2017-10-03T03:00:45.662Z,1010.79
2017-10-03T03:01:39.141Z,1010.76
2017-10-03T03:01:39.716Z,1010.77
2017-10-03T03:01:40.315Z,1010.78
2017-10-03T03:01:40.914Z,1010.75
2017-10-03T03:01:41.515Z,1010.75
2017-10-03T03:01:42.114Z,1010.74
2017-10-03T03:01:42.715Z,1010.75
2017-10-03T03:01:43.316Z,1010.78
2017-10-03T03:02:37.825Z,1010.73
2017-10-03T03:02:38.390Z,1010.71
2017-10-03T03:02:38.989Z,1010.72
2017-10-03T03:02:39.591Z,1010.74
2017-10-03T03:02:40.210Z,1010.76
2017-10-03T03:02:40.823Z,1010.75
2017-10-03T03:02:41.508Z,1010.75
2017-10-03T03:02:42.019Z,1010.75
2017-10-03T03:03:35.979Z,1010.70
2017-10-03T03:03:36.560Z,1010.74
2017-10-03T03:03:37.158Z,1010.74
2017-10-03T03:03:37.754Z,1010.72
2017-10-03T03:03:38.354Z,1010.73
2017-10-03T03:03:38.955Z,1010.76
2017-10-03T03:03:39.554Z,1010.73
2017-10-03T03:04:33.121Z,1010.73
2017-10-03T03:04:33.697Z,1010.75
2017-10-03T03:04:34.296Z,1010.74
2017-10-03T03:04:34.896Z,1010.79
2017-10-03T03:04:35.496Z,1010.74
2017-10-03T03:04:36.095Z,1010.74
2017-10-03T03:04:36.694Z,1010.75
2017-10-03T03:04:37.294Z,1010.72
2017-10-03T03:05:30.774Z,1010.70
2017-10-03T03:05:31.348Z,1010.70
2017-10-03T03:05:31.946Z,1010.72
2017-10-03T03:05:32.545Z,1010.70
2017-10-03T03:05:33.149Z,1010.70
2017-10-03T03:05:33.746Z,1010.71
2017-10-03T03:05:34.346Z,1010.75
2017-10-03T03:05:34.952Z,1010.74
2017-10-03T03:06:29.450Z,1010.69
2017-10-03T03:06:30.022Z,1010.68
2017-10-03T03:06:30.622Z,1010.70
2017-10-03T03:06:31.226Z,1010.70
2017-10-03T03:06:31.822Z,1010.69
2017-10-03T03:06:32.421Z,1010.70
2017-10-03T03:06:33.022Z,1010.73
2017-10-03T03:06:33.622Z,1010.69
2017-10-03T03:07:28.124Z,1010.71
2017-10-03T03:07:28.698Z,1010.71
2017-10-03T03:07:29.298Z,1010.71
2017-10-03T03:07:29.897Z,1010.70
2017-10-03T03:07:30.499Z,1010.70
2017-10-03T03:07:31.097Z,1010.71
2017-10-03T03:07:31.697Z,1010.70
2017-10-03T03:07:32.298Z,1010.69
2017-10-03T03:08:25.776Z,1010.67
2017-10-03T03:08:26.351Z,1010.63
2017-10-03T03:08:26.950Z,1010.65
2017-10-03T03:08:27.550Z,1010.66
2017-10-03T03:08:28.152Z,1010.66
2017-10-03T03:08:28.750Z,1010.63
2017-10-03T03:08:29.350Z,1010.64
2017-10-03T03:08:29.951Z,1010.67
2017-10-03T03:09:23.426Z,1010.67
2017-10-03T03:09:24.003Z,1010.63
2017-10-03T03:09:24.602Z,1010.66
2017-10-03T03:09:25.202Z,1010.67
2017-10-03T03:09:25.801Z,1010.66
2017-10-03T03:09:26.401Z,1010.67
2017-10-03T03:09:27.001Z,1010.67
2017-10-03T03:09:27.600Z,1010.65
2017-10-03T03:10:22.105Z,1010.67
2017-10-03T03:10:22.677Z,1010.70
2017-10-03T03:10:23.277Z,1010.66
2017-10-03T03:10:23.878Z,1010.68
2017-10-03T03:10:24.476Z,1010.67
2017-10-03T03:10:25.077Z,1010.67
2017-10-03T03:10:25.675Z,1010.67
2017-10-03T03:10:26.276Z,1010.65
2017-10-03T03:11:20.779Z,1010.65
2017-10-03T03:11:21.353Z,1010.65
2017-10-03T03:11:21.952Z,1010.65
2017-10-03T03:11:22.552Z,1010.67
2017-10-03T03:11:23.151Z,1010.65
2017-10-03T03:11:23.752Z,1010.69
2017-10-03T03:11:24.353Z,1010.68
2017-10-03T03:11:24.952Z,1010.71
2017-10-03T03:12:19.456Z,1010.68
2017-10-03T03:12:20.028Z,1010.68
2017-10-03T03:12:20.627Z,1010.68
2017-10-03T03:12:21.227Z,1010.66
2017-10-03T03:12:21.829Z,1010.65
2017-10-03T03:12:22.429Z,1010.67
2017-10-03T03:12:23.031Z,1010.66
2017-10-03T03:12:23.628Z,1010.66
2017-10-03T03:13:17.105Z,1010.63
2017-10-03T03:13:17.678Z,1010.64
2017-10-03T03:13:18.280Z,1010.63
2017-10-03T03:13:18.879Z,1010.67
2017-10-03T03:13:19.480Z,1010.65
2017-10-03T03:13:20.078Z,1010.64
2017-10-03T03:13:20.680Z,1010.65
2017-10-03T03:13:21.280Z,1010.63
2017-10-03T03:14:15.782Z,1010.66
2017-10-03T03:14:16.355Z,1010.65
2017-10-03T03:14:16.956Z,1010.65
2017-10-03T03:14:17.555Z,1010.64
2017-10-03T03:14:18.154Z,1010.64
2017-10-03T03:14:18.755Z,1010.63
2017-10-03T03:14:19.355Z,1010.65
2017-10-03T03:14:19.954Z,1010.68
2017-10-03T03:15:13.434Z,1010.64
2017-10-03T03:15:14.006Z,1010.64
2017-10-03T03:15:14.611Z,1010.63
2017-10-03T03:15:15.207Z,1010.65
2017-10-03T03:15:15.807Z,1010.68
2017-10-03T03:15:16.406Z,1010.65
2017-10-03T03:15:17.005Z,1010.63
2017-10-03T03:15:17.607Z,1010.61
2017-10-03T03:16:11.084Z,1010.68
2017-10-03T03:16:11.659Z,1010.67
2017-10-03T03:16:12.261Z,1010.67
2017-10-03T03:16:12.859Z,1010.62
2017-10-03T03:16:13.460Z,1010.64
2017-10-03T03:16:14.059Z,1010.67
2017-10-03T03:16:14.658Z,1010.63
2017-10-03T03:16:15.261Z,1010.66
2017-10-03T03:17:09.762Z,1010.62
2017-10-03T03:17:10.333Z,1010.62
2017-10-03T03:17:10.933Z,1010.60
2017-10-03T03:17:11.534Z,1010.63
2017-10-03T03:17:12.134Z,1010.61
2017-10-03T03:17:12.734Z,1010.60
2017-10-03T03:17:13.333Z,1010.61
2017-10-03T03:17:13.933Z,1010.66
2017-10-03T03:18:07.412Z,1010.60
2017-10-03T03:18:07.987Z,1010.63
2017-10-03T03:18:08.588Z,1010.62
2017-10-03T03:18:09.187Z,1010.55
2017-10-03T03:18:09.786Z,1010.63
2017-10-03T03:18:10.387Z,1010.61
2017-10-03T03:18:10.986Z,1010.63
2017-10-03T03:18:11.586Z,1010.63
2017-10-03T03:19:05.064Z,1010.60
2017-10-03T03:19:05.639Z,1010.65
2017-10-03T03:19:06.239Z,1010.59
2017-10-03T03:19:06.838Z,1010.64
2017-10-03T03:19:07.438Z,1010.68
2017-10-03T03:19:08.037Z,1010.63
2017-10-03T03:19:08.637Z,1010.62
2017-10-03T03:19:09.238Z,1010.62
2017-10-03T03:20:02.716Z,1010.62
2017-10-03T03:20:03.290Z,1010.62
2017-10-03T03:20:03.890Z,1010.57
2017-10-03T03:20:04.489Z,1010.59
2017-10-03T03:20:05.089Z,1010.62
2017-10-03T03:20:05.688Z,1010.58
2017-10-03T03:20:06.290Z,1010.58